Time;durP1;ratioP1;P1;durP2;ratioP2;P2;SDS_P1;SDS_P2;PMS_P1;PMS_P2;Temp;Humidity;BMP_temperature;BMP_pressure;BME280_temperature;BME280_humidity;BME280_pressure;Samples;Min_cycle;Max_cycle;Signal;HPM_P1;HPM_P2
2023/01/12 09:48:43;;;;;;;6.22;5.00;;;;;;;;;;4918645;29;20054;-88
2023/01/12 09:51:22;;;;;;;5.80;4.88;;;;;;;;;;4916523;29;20032;-87
2023/01/12 09:53:48;;;;;;;7.32;4.50;;;;;;;;;;4917814;29;20040;-88
2023/01/12 09:56:35;;;;;;;7.82;5.00;;;;;;;;;;4917915;29;20047;-88
2023/01/12 09:59:16;;;;;;;6.93;5.20;;;;;;;;;;4916475;29;20028;-87
2023/01/12 10:01:42;;;;;;;5.90;4.60;;;;;;;;;;4916382;29;20028;-87
2023/01/12 10:04:08;;;;;;;8.02;4.65;;;;;;;;;;4917623;29;20118;-88
2023/01/12 10:06:34;;;;;;;6.28;4.95;;;;;;;;;;4916444;29;20443;-88
2023/01/12 10:09:05;;;;;;;7.20;5.82;;;;;;;;;;4917541;29;20039;-88
2023/01/12 10:12:19;;;;;;;5.68;4.47;;;;;;;;;;4916402;29;20216;-88
2023/01/12 10:14:58;;;;;;;6.25;4.28;;;;;;;;;;4862435;29;20428;-87
2023/01/12 10:17:54;;;;;;;7.85;5.05;;;;;;;;;;4877987;29;20484;-87
2023/01/12 10:20:22;;;;;;;7.47;5.22;;;;;;;;;;4878180;29;20408;-88
2023/01/12 10:22:49;;;;;;;;;;;;;;;;;;4878649;29;20084;-85
2023/01/12 10:25:33;;;;;;;;;;;;;;;;;;4878734;29;19915;-88
2023/01/12 10:28:05;;;;;;;;;;;;;;;;;;4862139;29;19915;-88
2023/01/12 10:30:32;;;;;;;;;;;;;;;;;;4878725;29;19915;-84
2023/01/12 10:33:06;;;;;;;;;;;;;;;;;;4879532;29;20292;-86
2023/01/12 10:35:32;;;;;;;;;;;;;;;;;;4879628;29;19923;-88
2023/01/12 10:37:57;;;;;;;;;;;;;;;;;;4868216;29;19920;-88
2023/01/12 10:40:25;;;;;;;;;;;;;;;;;;4867474;29;19916;-88
2023/01/12 10:45:37;;;;;;;;;;;;;;;;;;4909622;29;19922;-89
2023/01/12 10:48:14;;;;;;;;;;;;;;;;;;4920441;29;19911;-89
2023/01/12 10:50:41;;;;;;;;;;;;;;;;;;4923998;29;19915;-88
2023/01/12 10:53:13;;;;;;;;;;;;;;;;;;4921297;29;19915;-89
2023/01/12 10:55:39;;;;;;;;;;;;;;;;;;4923660;29;19915;-90
2023/01/12 10:58:15;;;;;;;;;;;;;;;;;;4917324;29;19945;-90
2023/01/12 11:00:45;;;;;;;;;;;;;;;;;;4916685;29;19994;-89
2023/01/12 11:03:43;;;;;;;;;;;;;;;;;;4917011;29;19918;-89
2023/01/12 11:06:17;;;;;;;;;;;;;;;;;;4896661;29;19962;-89
2023/01/12 11:08:42;;;;;;;;;;;;;;;;;;4917654;29;19922;-87
2023/01/12 11:11:16;;;;;;;;;;;;;;;;;;4917668;29;20266;-87
2023/01/12 11:13:43;;;;;;;;;;;;;;;;;;4917768;29;19953;-89
2023/01/12 11:16:14;;;;;;;;;;;;;;;;;;4919773;29;20325;-90
2023/01/12 11:18:43;;;;;;;;;;;;;;;;;;4917689;29;19915;-89
2023/01/12 11:21:11;;;;;;;;;;;;;;;;;;4916496;29;19915;-89
2023/01/12 11:23:59;;;;;;;;;;;;;;;;;;4917505;29;19919;-89
2023/01/12 11:26:33;;;;;;;;;;;;;;;;;;4917419;29;19919;-89
2023/01/12 11:29:00;;;;;;;;;;;;;;;;;;4914813;29;20022;-89
2023/01/12 11:31:35;;;;;;;;;;;;;;;;;;4917717;29;19974;-96
2023/01/12 11:34:02;;;;;;;;;;;;;;;;;;4917739;29;19922;-92
2023/01/12 11:36:33;;;;;;;;;;;;;;;;;;4917417;29;19969;-94
2023/01/12 11:39:06;;;;;;;;;;;;;;;;;;4917800;29;20013;-90
2023/01/12 11:41:42;;;;;;;;;;;;;;;;;;4921501;29;19915;-92
2023/01/12 11:44:10;;;;;;;;;;;;;;;;;;4921565;29;19919;-94
2023/01/12 11:46:57;;;;;;;;;;;;;;;;;;4921239;29;19922;-94
2023/01/12 11:49:26;;;;;;;;;;;;;;;;;;4922216;29;19938;-91
2023/01/12 11:51:55;;;;;;;;;;;;;;;;;;4921012;29;19922;-83
2023/01/12 11:54:21;;;;;;;;;;;;;;;;;;4920607;29;19925;-82
2023/01/12 11:57:05;;;;;;;;;;;;;;;;;;4920841;29;19915;-88
2023/01/12 11:59:44;;;;;;;;;;;;;;;;;;4920561;29;19916;-91
2023/01/12 12:02:10;;;;;;;;;;;;;;;;;;4920246;29;20384;-86
2023/01/12 12:04:35;;;;;;;;;;;;;;;;;;4920254;29;19922;-87
2023/01/12 12:07:15;;;;;;;;;;;;;;;;;;4921232;29;19946;-88
2023/01/12 12:09:53;;;;;;;;;;;;;;;;;;4920057;29;19919;-87
2023/01/12 12:12:44;;;;;;;;;;;;;;;;;;4920353;29;19915;-87
2023/01/12 12:15:21;;;;;;;;;;;;;;;;;;4911824;29;20334;-87
2023/01/12 12:18:05;;;;;;;;;;;;;;;;;;4918837;29;20334;-88
2023/01/12 12:20:35;;;;;;;;;;;;;;;;;;4919764;29;19915;-88
2023/01/12 12:23:03;;;;;;;;;;;;;;;;;;4919684;29;19954;-90
2023/01/12 12:25:51;;;;;;;;;;;;;;;;;;4918792;29;20290;-87
2023/01/12 12:28:32;;;;;;;;;;;;;;;;;;4919657;29;19915;-88
2023/01/12 12:31:21;;;;;;;;;;;;;;;;;;4920251;29;19915;-87
2023/01/12 12:34:06;;;;;;;;;;;;;;;;;;4918927;29;19915;-89
2023/01/12 12:36:54;;;;;;;;;;;;;;;;;;4920725;29;19919;-90
2023/01/12 12:39:34;;;;;;;;;;;;;;;;;;4918293;29;19911;-90
2023/01/12 12:45:16;;;;;;;;;;;;;;;;;;4919389;29;19967;-90
2023/01/12 12:47:41;;;;;;;;;;;;;;;;;;4918764;29;19915;-91
2023/01/12 17:13:02;;;;;;;;;;;;;;;;;;4908091;29;19924;-84
2023/01/12 17:15:28;;;;;;;;;;;;;;;;;;4899707;29;20366;-84
2023/01/12 17:17:53;;;;;;;;;;;;;;;;;;4899523;29;20044;-84
2023/01/12 17:20:19;;;;;;;;;;;;;;;;;;4899543;29;19958;-85
2023/01/12 17:22:45;;;;;;;;;;;;;;;;;;4894799;29;19919;-84
2023/01/12 17:25:10;;;;;;;;;;;;;;;;;;4906659;29;20014;-85
2023/01/12 17:27:35;;;;;;;;;;;;;;;;;;4901726;29;19919;-85
2023/01/12 17:30:01;;;;;;;;;;;;;;;;;;4898584;29;19950;-86
2023/01/12 17:32:26;;;;;;;;;;;;;;;;;;4898127;29;19915;-86
2023/01/12 17:34:51;;;;;;;;;;;;;;;;;;4899353;29;19962;-86
2023/01/12 17:37:17;;;;;;;;;;;;;;;;;;4898624;29;19955;-86
2023/01/12 17:39:42;;;;;;;;;;;;;;;;;;4897821;29;19920;-86
2023/01/12 17:44:55;;;;;;;;;;;;;;;;;;4895911;29;19943;-87
2023/01/12 17:47:20;;;;;;;;;;;;;;;;;;4899898;29;19915;-86
2023/01/12 17:49:46;;;;;;;;;;;;;;;;;;4897799;29;20405;-86
2023/01/12 17:52:12;;;;;;;;;;;;;;;;;;4897829;29;19915;-86
2023/01/12 17:54:37;;;;;;;;;;;;;;;;;;4898970;29;19962;-85
2023/01/12 17:57:02;;;;;;;;;;;;;;;;;;4898820;29;19919;-85
2023/01/12 17:59:28;;;;;;;;;;;;;;;;;;4898904;29;19963;-85
2023/01/12 18:01:54;;;;;;;;;;;;;;;;;;4899339;29;20042;-85
2023/01/12 18:04:20;;;;;;;;;;;;;;;;;;4899414;29;19916;-85
2023/01/12 18:06:45;;;;;;;;;;;;;;;;;;4898927;29;19919;-85
2023/01/12 18:09:11;;;;;;;;;;;;;;;;;;4898786;29;20011;-84
2023/01/12 18:11:37;;;;;;;;;;;;;;;;;;4897692;29;20414;-85
2023/01/12 18:14:02;;;;;;;;;;;;;;;;;;4898684;29;19927;-85
2023/01/12 18:16:28;;;;;;;;;;;;;;;;;;4898945;29;19915;-85
2023/01/12 18:18:53;;;;;;;;;;;;;;;;;;4898434;29;19923;-89
2023/01/12 18:21:23;;;;;;;;;;;;;;;;;;4898798;29;19922;-86
2023/01/12 18:23:49;;;;;;;;;;;;;;;;;;4898909;29;19922;-84
2023/01/12 18:26:16;;;;;;;;;;;;;;;;;;4898661;29;19923;-90
2023/01/12 18:28:41;;;;;;;;;;;;;;;;;;4898889;29;19915;-86
2023/01/12 18:31:08;;;;;;;;;;;;;;;;;;4897356;29;19946;-86
2023/01/12 18:33:34;;;;;;;;;;;;;;;;;;4897448;29;19923;-85
2023/01/12 18:35:59;;;;;;;;;;;;;;;;;;4898608;29;20260;-86
2023/01/12 18:38:28;;;;;;;;;;;;;;;;;;4897472;29;19919;-87
2023/01/12 18:43:37;;;;;;;;;;;;;;;;;;4892433;29;19921;-86
2023/01/12 18:46:05;;;;;;;;;;;;;;;;;;4917371;29;20354;-86
2023/01/12 18:48:31;;;;;;;;;;;;;;;;;;4919458;29;20351;-85
2023/01/12 18:53:40;;;;;;;;;;;;;;;;;;4899544;29;20029;-84
2023/01/12 18:56:05;;;;;;;;;;;;;;;;;;4921009;29;19930;-85
2023/01/12 18:58:32;;;;;;;;;;;;;;;;;;4921328;29;20366;-84
2023/01/12 19:01:17;;;;;;;;;;;;;;;;;;4920884;29;19915;-85
2023/01/12 19:03:42;;;;;;;;;;;;;;;;;;4921112;29;20251;-85
2023/01/12 19:06:40;;;;;;;;;;;;;;;;;;4921101;29;19915;-88
2023/01/12 19:11:50;;;;;;;;;;;;;;;;;;4921249;29;19922;-87
2023/01/12 19:19:43;;;;;;;;;;;;;;;;;;4913879;29;19954;-87
2023/01/12 19:30:20;;;;;;;;;;;;;;;;;;4904889;29;19922;-87
2023/01/12 19:32:45;;;;;;;;;;;;;;;;;;4901667;29;20275;-88
2023/01/12 19:35:11;;;;;;;;;;;;;;;;;;4901976;29;20347;-84
2023/01/12 19:37:37;;;;;;;;;;;;;;;;;;4900474;29;20331;-89
2023/01/12 19:40:09;;;;;;;;;;;;;;;;;;4902077;29;20390;-89
2023/01/12 19:45:18;;;;;;;;;;;;;;;;;;4903537;29;19973;-87
2023/01/12 19:47:44;;;;;;;;;;;;;;;;;;4901757;29;19951;-86
2023/01/12 19:50:10;;;;;;;;;;;;;;;;;;4901604;29;20434;-86
2023/01/12 19:52:36;;;;;;;;;;;;;;;;;;4900416;29;19923;-88
2023/01/12 19:55:03;;;;;;;;;;;;;;;;;;4900559;29;19916;-91
2023/01/12 19:57:28;;;;;;;;;;;;;;;;;;4900428;29;19915;-86
2023/01/12 19:59:54;;;;;;;;;;;;;;;;;;4900476;29;20010;-89
2023/01/12 20:02:19;;;;;;;;;;;;;;;;;;4901389;29;20014;-88
2023/01/12 20:04:44;;;;;;;;;;;;;;;;;;4901423;29;19915;-88
2023/01/12 20:07:10;;;;;;;;;;;;;;;;;;4901455;29;20353;-88
2023/01/12 20:09:36;;;;;;;;;;;;;;;;;;4900198;29;19923;-87
2023/01/12 20:12:03;;;;;;;;;;;;;;;;;;4901418;29;19924;-85
2023/01/12 20:14:28;;;;;;;;;;;;;;;;;;4901292;29;20074;-87
2023/01/12 20:16:54;;;;;;;;;;;;;;;;;;4901062;29;20378;-88
2023/01/12 20:19:19;;;;;;;;;;;;;;;;;;4900714;29;19915;-87
2023/01/12 20:21:45;;;;;;;;;;;;;;;;;;4900996;29;19922;-87
2023/01/12 20:24:10;;;;;;;;;;;;;;;;;;4900984;29;20270;-87
2023/01/12 20:26:36;;;;;;;;;;;;;;;;;;4900700;29;19946;-86
2023/01/12 20:29:01;;;;;;;;;;;;;;;;;;4899781;29;19915;-86
2023/01/12 20:31:26;;;;;;;;;;;;;;;;;;4899592;29;19942;-87
2023/01/12 20:33:52;;;;;;;;;;;;;;;;;;4900982;29;20354;-88
2023/01/12 20:36:18;;;;;;;;;;;;;;;;;;4899719;29;19971;-89
2023/01/12 20:38:45;;;;;;;;;;;;;;;;;;4900716;29;19949;-86
2023/01/12 20:41:11;;;;;;;;;;;;;;;;;;4899669;29;19970;-89
2023/01/12 20:43:36;;;;;;;;;;;;;;;;;;4899731;29;19915;-87
2023/01/12 20:46:05;;;;;;;;;;;;;;;;;;4900763;29;20076;-89
2023/01/12 20:48:31;;;;;;;;;;;;;;;;;;4900758;29;20496;-89
2023/01/12 20:50:57;;;;;;;;;;;;;;;;;;4900146;29;19926;-89
2023/01/12 20:53:25;;;;;;;;;;;;;;;;;;4894362;29;19922;-88
2023/01/12 20:55:51;;;;;;;;;;;;;;;;;;4894184;29;19915;-89
2023/01/12 20:58:17;;;;;;;;;;;;;;;;;;4884903;29;19919;-88
2023/01/12 21:00:42;;;;;;;;;;;;;;;;;;4882336;29;20311;-89
2023/01/12 21:03:07;;;;;;;;;;;;;;;;;;4899572;29;19916;-88
2023/01/12 21:05:33;;;;;;;;;;;;;;;;;;4899463;29;19943;-88
2023/01/12 21:07:59;;;;;;;;;;;;;;;;;;4900530;29;20410;-90
2023/01/12 21:10:24;;;;;;;;;;;;;;;;;;4898894;29;19911;-87
2023/01/12 21:12:50;;;;;;;;;;;;;;;;;;4898925;29;19919;-88
2023/01/12 21:15:16;;;;;;;;;;;;;;;;;;4901313;29;19916;-88
2023/01/12 21:17:43;;;;;;;;;;;;;;;;;;4900106;29;19946;-88
2023/01/12 21:20:09;;;;;;;;;;;;;;;;;;4901760;29;20275;-90
2023/01/12 21:22:34;;;;;;;;;;;;;;;;;;4900287;29;20348;-89
2023/01/12 21:25:00;;;;;;;;;;;;;;;;;;4900040;29;19916;-88
2023/01/12 21:27:26;;;;;;;;;;;;;;;;;;4891322;29;20003;-86
2023/01/12 21:29:52;;;;;;;;;;;;;;;;;;4881181;29;19919;-88
2023/01/12 21:32:17;;;;;;;;;;;;;;;;;;4880132;29;20268;-88
2023/01/12 21:34:42;;;;;;;;;;;;;;;;;;4879987;29;20458;-89
2023/01/12 21:37:08;;;;;;;;;;;;;;;;;;4881667;29;20287;-88
2023/01/12 21:39:33;;;;;;;;;;;;;;;;;;4880134;29;19924;-89
2023/01/12 21:44:42;;;;;;;;;;;;;;;;;;4881509;29;19923;-89
2023/01/12 21:47:08;;;;;;;;;;;;;;;;;;4885325;29;19915;-89
2023/01/12 21:49:33;;;;;;;;;;;;;;;;;;4898483;29;19923;-88
2023/01/12 21:51:58;;;;;;;;;;;;;;;;;;4898379;29;20312;-89
2023/01/12 21:54:24;;;;;;;;;;;;;;;;;;4898037;29;19926;-87
2023/01/12 21:56:49;;;;;;;;;;;;;;;;;;4899385;29;19966;-86
2023/01/12 21:59:15;;;;;;;;;;;;;;;;;;4898071;29;19918;-87
2023/01/12 22:01:40;;;;;;;;;;;;;;;;;;4897891;29;19967;-89
2023/01/12 22:04:06;;;;;;;;;;;;;;;;;;4898224;29;20358;-88
2023/01/12 22:06:31;;;;;;;;;;;;;;;;;;4898566;29;19958;-92
2023/01/12 22:08:57;;;;;;;;;;;;;;;;;;4898092;29;20279;-88
2023/01/12 22:11:22;;;;;;;;;;;;;;;;;;4899202;29;19918;-89
2023/01/12 22:13:48;;;;;;;;;;;;;;;;;;4898027;29;19925;-87
2023/01/12 22:16:14;;;;;;;;;;;;;;;;;;4898104;29;20015;-89
2023/01/12 22:18:41;;;;;;;;;;;;;;;;;;4898064;29;19958;-90
2023/01/12 22:21:08;;;;;;;;;;;;;;;;;;4897985;29;19915;-88
2023/01/12 22:23:37;;;;;;;;;;;;;;;;;;4897325;29;19919;-87
2023/01/12 22:26:03;;;;;;;;;;;;;;;;;;4897570;29;19915;-88
2023/01/12 22:28:30;;;;;;;;;;;;;;;;;;4897721;29;19915;-89
2023/01/12 22:30:56;;;;;;;;;;;;;;;;;;4897402;29;20002;-89
2023/01/12 22:33:21;;;;;;;;;;;;;;;;;;4898319;29;20392;-92
